Happy Valley, Nevada
Current Conditions -  °F | °C
As of 2:55 PM on Saturday 25 Oct 2014 (Local Time) from KRNO Reporting Station
Light Rain Light Rain  
Wind Chill: 11°   Ceiling: 7000
Heat Index: 11°   Visibility: 10mi
Dew Point:   Wind: 16mph
Humidity: 61%   Direction: 280°W
Pressure: 30.02"   Gusts: 26mph
Location:  39.5386°N, 119.749°W
Report Text: KRNO 252155Z 28014G23KT 10SM -RA FEW040 SCT055 BKN070 BKN130 11/03 A3002 RMK AO2 PK WND 30043/2058 RAB2059 SLP132 ACSL DSNT N NW P0000 T01060033
Loading
Personal Weather Stations






























Interactive Weather Map
Tropical Storm Tracking
New forecast layout! Learn more

10-Day Weather Forecast

Advertisements
Track Severe Weather on mobile